Time;durP1;ratioP1;P1;durP2;ratioP2;P2;SDS_P1;SDS_P2;PMS_P1;PMS_P2;Temp;Humidity;BMP_temperature;BMP_pressure;BME280_temperature;BME280_humidity;BME280_pressure;Samples;Min_cycle;Max_cycle;Signal;HPM_P1;HPM_P2
2021/04/22 00:00:27;;;;;;;10.77;8.43;;;2.70;99.90;;;;;;2080527;28;20177;-71
2021/04/22 00:01:28;;;;;;;12.73;9.33;;;2.80;99.90;;;;;;2080435;28;20169;-71
2021/04/22 00:02:28;;;;;;;9.70;8.50;;;2.80;99.90;;;;;;2088914;28;20203;-71
2021/04/22 00:03:29;;;;;;;9.53;8.40;;;2.80;99.90;;;;;;2089489;28;20176;-71
2021/04/22 00:04:30;;;;;;;9.57;7.23;;;2.90;99.90;;;;;;2089587;28;20173;-74
2021/04/22 00:05:39;;;;;;;12.00;8.53;;;2.90;99.90;;;;;;2088849;28;20185;-71
2021/04/22 00:06:40;;;;;;;10.45;8.52;;;3.00;99.90;;;;;;2081786;28;20176;-71
2021/04/22 00:07:40;;;;;;;9.20;7.57;;;3.00;99.90;;;;;;2080609;28;20188;-71
2021/04/22 00:08:41;;;;;;;9.60;8.20;;;3.10;99.90;;;;;;2088857;28;20283;-71
2021/04/22 00:09:42;;;;;;;12.17;8.77;;;3.20;99.90;;;;;;2088736;28;20199;-71
2021/04/22 00:10:50;;;;;;;10.57;8.80;;;3.20;99.90;;;;;;2089440;28;20180;-71
2021/04/22 00:11:50;;;;;;;11.65;8.80;;;3.20;99.90;;;;;;2089177;28;20719;-71
2021/04/22 00:12:51;;;;;;;10.53;8.50;;;3.20;99.90;;;;;;2089275;28;20243;-71
2021/04/22 00:13:52;;;;;;;9.37;7.43;;;3.30;99.90;;;;;;2089389;28;20175;-71
2021/04/22 00:14:53;;;;;;;9.07;7.73;;;3.30;99.90;;;;;;2089376;28;20270;-71
2021/04/22 00:15:54;;;;;;;9.13;7.30;;;3.30;99.90;;;;;;2089286;28;20192;-71
2021/04/22 00:16:55;;;;;;;11.60;8.07;;;3.40;99.90;;;;;;2089401;28;20161;-71
2021/04/22 00:17:57;;;;;;;11.83;8.10;;;3.40;99.90;;;;;;2089239;28;20168;-71
2021/04/22 00:18:57;;;;;;;11.10;8.43;;;3.50;99.90;;;;;;2088641;28;20208;-71
2021/04/22 00:19:59;;;;;;;9.40;8.13;;;3.50;99.90;;;;;;2088516;28;20735;-71
2021/04/22 00:20:59;;;;;;;9.98;8.65;;;3.40;99.90;;;;;;2089184;28;20178;-71
2021/04/22 00:22:01;;;;;;;11.60;8.43;;;3.40;99.90;;;;;;2089082;28;20176;-71
2021/04/22 00:23:06;;;;;;;11.55;8.98;;;3.40;99.90;;;;;;2088762;28;20192;-71
2021/04/22 00:24:08;;;;;;;10.32;8.63;;;3.40;99.90;;;;;;2088656;28;20176;-71
2021/04/22 00:25:09;;;;;;;10.82;8.95;;;3.30;99.90;;;;;;2089168;28;20176;-71
2021/04/22 00:26:10;;;;;;;10.45;8.32;;;3.30;99.90;;;;;;2088461;28;20192;-71
2021/04/22 00:27:11;;;;;;;10.75;8.55;;;3.20;99.90;;;;;;2088722;28;20258;-71
2021/04/22 00:28:14;;;;;;;13.23;9.83;;;3.20;99.90;;;;;;2089313;28;20215;-71
2021/04/22 00:29:15;;;;;;;12.70;9.30;;;3.10;99.90;;;;;;2088476;28;20608;-71
2021/04/22 00:30:18;;;;;;;12.13;9.57;;;3.10;99.90;;;;;;2088708;28;20253;-71
2021/04/22 00:31:18;;;;;;;11.18;8.77;;;3.00;99.90;;;;;;2089066;28;20180;-71
2021/04/22 00:32:19;;;;;;;12.47;8.90;;;3.00;99.90;;;;;;2089104;28;20268;-71
2021/04/22 00:33:22;;;;;;;11.97;9.23;;;3.00;99.90;;;;;;2089212;28;20226;-71
2021/04/22 00:34:23;;;;;;;10.77;8.82;;;3.00;99.90;;;;;;2088441;28;20178;-71
2021/04/22 00:35:24;;;;;;;11.27;9.53;;;3.00;99.90;;;;;;2088573;28;20588;-71
2021/04/22 00:36:25;;;;;;;9.38;8.07;;;2.90;99.90;;;;;;2089198;28;20172;-72
2021/04/22 00:37:26;;;;;;;11.70;8.40;;;3.00;99.90;;;;;;2088586;28;20279;-71
2021/04/22 00:38:27;;;;;;;12.00;8.37;;;2.90;99.90;;;;;;2088597;28;20172;-71
2021/04/22 00:39:27;;;;;;;14.47;9.87;;;2.90;99.90;;;;;;2080160;28;20216;-71
2021/04/22 00:40:28;;;;;;;12.70;9.50;;;2.90;99.90;;;;;;2080233;28;20181;-72
2021/04/22 00:41:29;;;;;;;10.68;8.70;;;2.80;99.90;;;;;;2089016;28;20172;-72
2021/04/22 00:42:30;;;;;;;12.03;9.67;;;2.80;99.90;;;;;;2089107;28;20644;-71
2021/04/22 00:43:30;;;;;;;11.73;8.80;;;2.80;99.90;;;;;;2088588;28;20338;-71
2021/04/22 00:44:32;;;;;;;11.43;9.20;;;2.80;99.90;;;;;;2088547;28;20254;-71
2021/04/22 00:45:37;;;;;;;14.00;10.57;;;2.80;99.90;;;;;;2089177;28;20184;-71
2021/04/22 00:46:39;;;;;;;11.95;9.35;;;2.80;99.90;;;;;;2088475;28;20696;-71
2021/04/22 00:47:40;;;;;;;13.25;9.65;;;2.80;99.90;;;;;;2072663;28;20178;-72
2021/04/22 00:48:41;;;;;;;12.95;9.45;;;2.90;99.90;;;;;;2080360;28;20695;-72
2021/04/22 00:49:43;;;;;;;14.53;10.33;;;2.90;99.90;;;;;;2088958;28;20211;-71
2021/04/22 00:50:44;;;;;;;13.85;9.43;;;2.90;99.90;;;;;;2088254;28;20169;-72
2021/04/22 00:51:44;;;;;;;10.98;9.07;;;2.80;99.90;;;;;;2080127;28;20249;-71
2021/04/22 00:52:45;;;;;;;12.97;10.20;;;2.80;99.90;;;;;;2080059;28;20771;-71
2021/04/22 00:53:47;;;;;;;11.10;9.10;;;2.80;99.90;;;;;;2088465;28;20846;-71
2021/04/22 00:54:48;;;;;;;13.02;9.57;;;2.80;99.90;;;;;;2088313;28;20849;-71
2021/04/22 00:55:49;;;;;;;11.63;9.33;;;2.80;99.90;;;;;;2080196;28;20248;-71
2021/04/22 00:56:50;;;;;;;11.25;9.07;;;2.70;99.90;;;;;;2088437;28;20255;-71
2021/04/22 00:57:51;;;;;;;12.37;9.50;;;2.70;99.90;;;;;;2088453;28;20165;-71
2021/04/22 00:58:52;;;;;;;10.27;8.45;;;2.70;99.90;;;;;;2088317;28;20203;-71
2021/04/22 00:59:53;;;;;;;9.93;7.67;;;2.80;99.90;;;;;;2088446;28;20564;-71
2021/04/22 01:00:58;;;;;;;13.30;9.17;;;2.70;99.90;;;;;;2089107;28;20169;-71
2021/04/22 01:02:07;;;;;;;10.13;7.55;;;2.70;99.90;;;;;;2088292;28;20177;-72
2021/04/22 01:03:08;;;;;;;9.23;7.25;;;2.60;99.90;;;;;;2088334;28;20200;-71
2021/04/22 01:04:09;;;;;;;10.68;8.55;;;2.60;99.90;;;;;;2088419;28;20169;-70
2021/04/22 01:05:15;;;;;;;12.97;9.47;;;2.50;99.90;;;;;;2088452;28;20168;-71
2021/04/22 01:06:17;;;;;;;8.43;7.35;;;2.50;99.90;;;;;;2089096;28;20230;-71
2021/04/22 01:07:18;;;;;;;10.30;8.10;;;2.50;99.90;;;;;;2088025;28;20259;-71
2021/04/22 01:08:19;;;;;;;12.33;7.60;;;2.50;99.90;;;;;;2088331;28;20176;-71
2021/04/22 01:09:19;;;;;;;9.47;7.63;;;2.40;99.90;;;;;;2096433;28;20410;-71
2021/04/22 01:10:21;;;;;;;11.33;8.93;;;2.40;99.90;;;;;;2088514;28;20423;-71
2021/04/22 01:11:29;;;;;;;11.93;8.85;;;2.50;99.90;;;;;;2088137;28;20207;-71
2021/04/22 01:12:29;;;;;;;12.85;10.00;;;2.50;99.90;;;;;;2088866;28;20691;-70
2021/04/22 01:13:30;;;;;;;12.20;10.07;;;2.50;99.90;;;;;;2088896;28;20172;-70
2021/04/22 01:14:31;;;;;;;11.70;9.03;;;2.50;99.90;;;;;;2088998;28;20180;-71
2021/04/22 01:15:32;;;;;;;12.00;9.43;;;2.50;99.90;;;;;;2088906;28;20610;-71
2021/04/22 01:16:33;;;;;;;11.77;9.18;;;2.50;99.90;;;;;;2089001;28;20180;-71
2021/04/22 01:17:35;;;;;;;14.83;9.97;;;2.50;99.90;;;;;;2088119;28;20682;-70
2021/04/22 01:18:36;;;;;;;12.02;9.52;;;2.50;99.90;;;;;;2088342;28;20830;-71
2021/04/22 01:19:37;;;;;;;11.87;9.83;;;2.60;99.90;;;;;;2088987;28;20210;-70
2021/04/22 01:20:52;;;;;;;15.87;11.17;;;2.60;99.90;;;;;;2088938;28;20465;-71
2021/04/22 01:21:53;;;;;;;12.82;9.77;;;2.60;99.90;;;;;;2088253;28;20175;-70
2021/04/22 01:22:57;;;;;;;13.20;10.13;;;2.60;99.90;;;;;;2088339;28;20316;-71
2021/04/22 01:23:57;;;;;;;13.70;9.98;;;2.60;99.90;;;;;;2090661;28;20176;-71
2021/04/22 01:24:58;;;;;;;12.87;9.97;;;2.70;99.90;;;;;;2088301;28;20180;-70
2021/04/22 01:25:59;;;;;;;13.30;10.47;;;2.70;99.90;;;;;;2088837;28;20669;-70
2021/04/22 01:27:00;;;;;;;11.90;9.50;;;2.70;99.90;;;;;;2088999;28;20177;-71
2021/04/22 01:28:02;;;;;;;16.10;10.87;;;2.70;99.90;;;;;;2088877;28;20196;-70
2021/04/22 01:29:06;;;;;;;17.17;11.57;;;2.70;99.90;;;;;;2088910;28;20259;-70
2021/04/22 01:30:17;;;;;;;13.20;9.80;;;2.70;99.90;;;;;;2088400;28;20250;-71
2021/04/22 01:31:18;;;;;;;18.02;12.25;;;2.70;99.90;;;;;;2081373;28;20185;-71
2021/04/22 01:32:19;;;;;;;15.38;11.15;;;2.70;99.90;;;;;;2080040;28;20189;-71
2021/04/22 01:33:25;;;;;;;15.47;10.43;;;2.70;99.90;;;;;;2088329;28;20738;-71
2021/04/22 01:34:25;;;;;;;13.77;10.13;;;2.70;99.90;;;;;;2089052;28;20180;-71
2021/04/22 01:35:33;;;;;;;14.83;10.67;;;2.70;99.90;;;;;;2088913;28;20260;-70
2021/04/22 01:36:44;;;;;;;13.15;9.10;;;2.70;99.90;;;;;;2081555;28;20173;-71
2021/04/22 01:37:46;;;;;;;15.50;10.88;;;2.70;99.90;;;;;;2088987;28;20200;-71
2021/04/22 01:38:47;;;;;;;13.18;9.88;;;2.70;99.90;;;;;;2088602;28;20169;-71
2021/04/22 01:39:48;;;;;;;11.03;9.07;;;2.60;99.90;;;;;;2080202;28;20279;-70
2021/04/22 01:40:50;;;;;;;11.57;9.07;;;2.60;99.90;;;;;;2080107;28;20260;-71
2021/04/22 01:41:50;;;;;;;13.18;9.75;;;2.60;99.90;;;;;;2079929;28;20467;-70
2021/04/22 01:42:51;;;;;;;15.07;10.77;;;2.60;99.90;;;;;;2079955;28;20189;-70
2021/04/22 01:43:53;;;;;;;12.00;9.55;;;2.60;99.90;;;;;;2088232;28;20180;-70
2021/04/22 01:44:53;;;;;;;14.18;10.48;;;2.60;99.90;;;;;;2088078;28;20230;-71
2021/04/22 01:45:54;;;;;;;16.80;11.07;;;2.60;99.90;;;;;;2088254;28;20565;-71
2021/04/22 01:46:55;;;;;;;13.93;10.27;;;2.60;99.90;;;;;;2088090;28;20236;-70
2021/04/22 01:47:56;;;;;;;11.57;9.50;;;2.60;99.90;;;;;;2080090;28;20251;-70
2021/04/22 01:48:57;;;;;;;13.70;9.63;;;2.50;99.90;;;;;;2088083;28;20251;-70
2021/04/22 01:49:58;;;;;;;12.20;9.37;;;2.50;99.90;;;;;;2088062;28;20216;-71
2021/04/22 01:50:58;;;;;;;13.63;9.93;;;2.50;99.90;;;;;;2088196;28;20714;-71
2021/04/22 01:51:59;;;;;;;11.53;9.60;;;2.50;99.90;;;;;;2088007;28;20675;-71
2021/04/22 01:53:00;;;;;;;13.43;9.80;;;2.50;99.90;;;;;;2088000;28;20208;-70
2021/04/22 01:54:01;;;;;;;16.38;11.15;;;2.50;99.90;;;;;;2088063;28;20181;-71
2021/04/22 01:55:06;;;;;;;12.83;9.93;;;2.50;99.90;;;;;;2088009;28;20206;-70
2021/04/22 01:56:07;;;;;;;13.00;10.00;;;2.60;99.90;;;;;;2088110;28;20430;-71
2021/04/22 01:57:08;;;;;;;10.68;9.10;;;2.60;99.90;;;;;;2087928;28;20177;-70
2021/04/22 01:58:12;;;;;;;15.17;9.23;;;2.60;99.90;;;;;;2079916;28;20174;-70
2021/04/22 01:59:13;;;;;;;11.60;9.27;;;2.70;99.90;;;;;;2080156;28;20173;-71
2021/04/22 02:00:19;;;;;;;11.07;9.33;;;2.70;99.90;;;;;;2088032;28;20235;-70
2021/04/22 02:01:20;;;;;;;14.88;10.68;;;2.80;99.90;;;;;;2088478;28;20251;-71
2021/04/22 02:02:20;;;;;;;16.63;11.97;;;2.80;99.90;;;;;;2088706;28;20165;-71
2021/04/22 02:03:22;;;;;;;19.37;12.40;;;2.80;99.90;;;;;;2088069;28;20181;-70
2021/04/22 02:04:22;;;;;;;14.82;10.48;;;2.80;99.90;;;;;;2079723;28;20326;-70
2021/04/22 02:05:23;;;;;;;14.30;10.53;;;2.90;99.90;;;;;;2079756;28;20220;-70
2021/04/22 02:06:24;;;;;;;14.47;10.83;;;2.90;99.90;;;;;;2088784;28;20417;-71
2021/04/22 02:07:24;;;;;;;12.80;9.70;;;2.90;99.90;;;;;;2088360;28;20244;-70
2021/04/22 02:08:25;;;;;;;12.60;9.90;;;2.90;99.90;;;;;;2088501;28;20164;-70
2021/04/22 02:09:26;;;;;;;16.40;9.73;;;2.90;99.90;;;;;;2087855;28;20180;-70
2021/04/22 02:10:27;;;;;;;12.63;10.10;;;2.90;99.90;;;;;;2087911;28;20562;-71
2021/04/22 02:11:28;;;;;;;13.20;9.67;;;2.90;99.90;;;;;;2088621;28;20192;-70
2021/04/22 02:12:28;;;;;;;13.20;9.90;;;2.90;99.90;;;;;;2088554;28;20255;-70
2021/04/22 02:13:30;;;;;;;15.63;10.97;;;2.80;99.90;;;;;;2088628;28;20272;-71
2021/04/22 02:14:30;;;;;;;13.35;9.55;;;2.80;99.90;;;;;;2088606;28;20183;-70
2021/04/22 02:15:32;;;;;;;15.57;11.13;;;2.80;99.90;;;;;;2088035;28;20183;-71
2021/04/22 02:16:33;;;;;;;12.38;10.10;;;2.80;99.90;;;;;;2079854;28;20196;-70
2021/04/22 02:17:33;;;;;;;14.33;11.07;;;2.70;99.90;;;;;;2079783;28;20187;-71
2021/04/22 02:18:34;;;;;;;14.07;11.03;;;2.80;99.90;;;;;;2088017;28;20188;-70
2021/04/22 02:19:35;;;;;;;15.90;11.57;;;2.80;99.90;;;;;;2088713;28;20196;-71
2021/04/22 02:20:35;;;;;;;15.47;11.10;;;2.80;99.90;;;;;;2088581;28;20227;-71
2021/04/22 02:21:36;;;;;;;15.47;11.10;;;2.80;99.90;;;;;;2088386;28;20743;-71
2021/04/22 02:22:37;;;;;;;18.33;13.17;;;2.80;99.90;;;;;;2087918;28;20555;-71
2021/04/22 02:23:38;;;;;;;15.70;11.77;;;2.80;99.90;;;;;;2079752;28;20674;-70
2021/04/22 02:24:39;;;;;;;17.60;11.60;;;2.80;99.90;;;;;;2087969;28;20184;-70
2021/04/22 02:25:40;;;;;;;13.60;10.77;;;2.80;99.90;;;;;;2089381;28;20267;-71
2021/04/22 02:26:41;;;;;;;15.85;11.00;;;2.90;99.90;;;;;;2090189;28;20558;-71
2021/04/22 02:27:43;;;;;;;15.50;11.13;;;2.80;99.90;;;;;;2090206;28;20180;-71
2021/04/22 02:28:44;;;;;;;19.63;12.20;;;2.90;99.90;;;;;;2090018;28;20489;-70
2021/04/22 02:29:44;;;;;;;17.20;11.33;;;2.90;99.90;;;;;;2088137;28;20254;-70
2021/04/22 02:30:46;;;;;;;14.70;11.30;;;2.80;99.90;;;;;;2081804;28;20562;-70
2021/04/22 02:31:46;;;;;;;18.42;11.80;;;2.80;99.90;;;;;;2080747;28;20182;-70
2021/04/22 02:32:48;;;;;;;14.27;10.23;;;2.80;99.90;;;;;;2081271;28;20220;-70
2021/04/22 02:33:53;;;;;;;17.38;12.57;;;2.80;99.90;;;;;;2081236;28;20176;-71
2021/04/22 02:34:53;;;;;;;16.20;11.07;;;2.70;99.90;;;;;;2081310;28;20169;-70
2021/04/22 02:35:54;;;;;;;14.90;10.73;;;2.70;99.90;;;;;;2081967;28;20165;-70
2021/04/22 02:36:55;;;;;;;13.90;10.67;;;2.70;99.90;;;;;;2081113;28;20192;-70
2021/04/22 02:37:57;;;;;;;15.57;11.00;;;2.60;99.90;;;;;;2073068;28;20189;-70
2021/04/22 02:38:58;;;;;;;15.65;11.32;;;2.60;99.90;;;;;;2081109;28;20205;-70
2021/04/22 02:39:59;;;;;;;12.90;10.10;;;2.60;99.90;;;;;;2080962;28;20200;-71
2021/04/22 02:41:00;;;;;;;16.00;10.37;;;2.60;99.90;;;;;;2073024;28;20220;-70
2021/04/22 02:42:00;;;;;;;15.27;11.60;;;2.50;99.90;;;;;;2080877;28;20169;-70
2021/04/22 02:43:06;;;;;;;16.03;11.57;;;2.50;99.90;;;;;;2080935;28;20267;-70
2021/04/22 02:44:06;;;;;;;16.15;12.07;;;2.50;99.90;;;;;;2073563;28;20181;-71
2021/04/22 02:45:15;;;;;;;13.43;11.00;;;2.40;99.90;;;;;;2081024;28;20177;-71
2021/04/22 02:46:16;;;;;;;17.20;11.55;;;2.40;99.90;;;;;;2081016;28;20691;-71
2021/04/22 02:47:16;;;;;;;15.43;10.87;;;2.40;99.90;;;;;;2072673;28;20193;-70
2021/04/22 02:48:18;;;;;;;14.53;10.70;;;2.30;99.90;;;;;;2081047;28;20185;-70
2021/04/22 02:49:18;;;;;;;16.63;11.80;;;2.30;99.90;;;;;;2080838;28;20185;-71
2021/04/22 02:50:24;;;;;;;14.07;10.90;;;2.30;99.90;;;;;;2080995;28;20726;-71
2021/04/22 02:51:25;;;;;;;16.25;10.50;;;2.30;99.90;;;;;;2080692;28;20200;-70
2021/04/22 02:52:25;;;;;;;16.93;11.40;;;2.30;99.90;;;;;;2080769;28;20192;-70
2021/04/22 02:53:26;;;;;;;15.07;10.57;;;2.30;99.90;;;;;;2080881;28;20211;-70
2021/04/22 02:54:27;;;;;;;16.42;11.45;;;2.20;99.90;;;;;;2072764;28;20177;-70
2021/04/22 02:55:28;;;;;;;14.67;10.73;;;2.20;99.90;;;;;;2080877;28;20660;-70
2021/04/22 02:56:29;;;;;;;12.20;9.80;;;2.20;99.90;;;;;;2080934;28;20270;-69
2021/04/22 02:57:29;;;;;;;20.97;11.80;;;2.10;99.90;;;;;;2072685;28;20216;-70
2021/04/22 02:58:30;;;;;;;17.40;11.20;;;2.10;99.90;;;;;;2080825;28;20220;-70
2021/04/22 02:59:31;;;;;;;18.90;11.83;;;2.10;99.90;;;;;;2081460;28;20247;-70
2021/04/22 03:00:32;;;;;;;16.23;12.03;;;2.10;99.90;;;;;;2081625;28;20204;-70
2021/04/22 03:01:32;;;;;;;16.70;11.77;;;2.10;99.90;;;;;;2080585;28;20836;-70
2021/04/22 03:02:33;;;;;;;18.27;11.43;;;2.10;99.90;;;;;;2080934;28;20207;-70
2021/04/22 03:03:34;;;;;;;15.27;10.67;;;2.10;99.90;;;;;;2080643;28;20276;-70
2021/04/22 03:04:35;;;;;;;19.50;12.70;;;2.10;99.90;;;;;;2080931;28;20188;-70
2021/04/22 03:05:36;;;;;;;21.03;13.37;;;2.00;99.90;;;;;;2081389;28;20184;-70
2021/04/22 03:06:36;;;;;;;17.00;12.10;;;2.00;99.90;;;;;;2080874;28;20184;-70
2021/04/22 03:07:37;;;;;;;21.93;12.63;;;2.00;99.90;;;;;;2080799;28;20185;-70
2021/04/22 03:08:38;;;;;;;18.20;11.50;;;2.00;99.90;;;;;;2080887;28;20254;-70
2021/04/22 03:09:39;;;;;;;18.03;12.27;;;2.00;99.90;;;;;;2081222;28;20200;-70
2021/04/22 03:10:40;;;;;;;22.83;13.40;;;2.00;99.90;;;;;;2081581;28;20185;-72
2021/04/22 03:11:41;;;;;;;18.60;12.38;;;2.00;99.90;;;;;;2080600;28;20205;-71
2021/04/22 03:12:42;;;;;;;19.45;12.40;;;1.90;99.90;;;;;;2064602;28;20218;-71
2021/04/22 03:13:43;;;;;;;17.40;11.85;;;1.90;99.90;;;;;;2072527;28;20184;-70
2021/04/22 03:14:44;;;;;;;15.93;11.17;;;1.90;99.90;;;;;;2081086;28;20552;-71
2021/04/22 03:15:45;;;;;;;22.90;13.20;;;1.90;99.90;;;;;;2080753;28;20200;-71
2021/04/22 03:16:45;;;;;;;18.88;12.38;;;1.90;99.90;;;;;;2072793;28;20180;-71
2021/04/22 03:17:47;;;;;;;19.80;13.27;;;1.80;99.90;;;;;;2080771;28;20940;-71
2021/04/22 03:18:48;;;;;;;23.73;14.82;;;1.80;99.90;;;;;;2080893;28;20170;-70
2021/04/22 03:19:48;;;;;;;19.00;12.73;;;1.80;99.90;;;;;;2080732;28;20193;-71
2021/04/22 03:20:49;;;;;;;19.33;12.30;;;1.80;99.90;;;;;;2080886;28;20176;-70
2021/04/22 03:21:50;;;;;;;18.23;11.90;;;1.70;99.90;;;;;;2080476;28;20172;-69
2021/04/22 03:22:51;;;;;;;25.10;15.33;;;1.70;99.90;;;;;;2081369;28;20180;-72
2021/04/22 03:23:52;;;;;;;25.83;15.52;;;1.70;99.90;;;;;;2081285;28;20589;-69
2021/04/22 03:24:52;;;;;;;26.77;16.57;;;1.70;99.90;;;;;;2081260;28;20204;-72
2021/04/22 03:25:53;;;;;;;20.53;14.13;;;1.80;99.90;;;;;;2080623;28;20710;-70
2021/04/22 03:26:54;;;;;;;19.23;14.43;;;1.80;99.90;;;;;;2090343;28;20183;-70
2021/04/22 03:27:55;;;;;;;19.20;13.50;;;1.90;99.90;;;;;;2089703;28;20222;-70
2021/04/22 03:28:56;;;;;;;22.48;14.35;;;1.90;99.90;;;;;;2088917;28;20306;-70
2021/04/22 03:29:58;;;;;;;18.83;13.63;;;1.90;99.90;;;;;;2088795;28;20695;-70
2021/04/22 03:30:58;;;;;;;20.75;13.65;;;1.90;99.90;;;;;;2089090;28;20275;-70
2021/04/22 03:31:59;;;;;;;24.70;15.50;;;1.90;99.90;;;;;;2080658;28;20181;-70
2021/04/22 03:33:01;;;;;;;19.07;13.40;;;1.90;99.90;;;;;;2088792;28;20715;-70
2021/04/22 03:34:02;;;;;;;18.40;13.18;;;1.90;99.90;;;;;;2088953;28;20651;-69
2021/04/22 03:35:04;;;;;;;19.52;14.02;;;1.90;99.90;;;;;;2088912;28;20188;-72
2021/04/22 03:36:06;;;;;;;24.10;15.55;;;1.90;99.90;;;;;;2089042;28;20180;-70
2021/04/22 03:37:07;;;;;;;32.33;21.75;;;1.90;99.90;;;;;;2088109;28;20195;-70
2021/04/22 03:38:07;;;;;;;27.80;17.73;;;1.90;99.90;;;;;;2088756;28;20778;-70
2021/04/22 03:39:08;;;;;;;80.00;57.03;;;2.00;99.90;;;;;;2088862;28;20635;-70
2021/04/22 03:40:13;;;;;;;88.38;65.45;;;2.00;99.90;;;;;;2089095;28;20173;-70
2021/04/22 03:41:14;;;;;;;55.90;42.80;;;2.10;99.90;;;;;;2080936;28;20181;-70
2021/04/22 03:42:18;;;;;;;48.00;35.47;;;2.10;99.90;;;;;;2088982;28;20667;-70
2021/04/22 03:43:18;;;;;;;36.67;26.38;;;2.20;99.90;;;;;;2089445;28;20407;-70
2021/04/22 03:44:19;;;;;;;27.47;19.27;;;2.20;99.90;;;;;;2089663;28;20670;-71
2021/04/22 03:45:22;;;;;;;24.87;18.67;;;2.20;99.90;;;;;;2088956;28;20194;-70
2021/04/22 03:46:23;;;;;;;23.40;16.83;;;2.30;99.90;;;;;;2088918;28;20176;-70
2021/04/22 03:47:23;;;;;;;19.97;15.27;;;2.30;99.90;;;;;;2088842;28;20188;-70
2021/04/22 03:48:24;;;;;;;20.50;15.53;;;2.30;99.90;;;;;;2080891;28;20243;-70
2021/04/22 03:49:25;;;;;;;20.00;15.50;;;2.40;99.90;;;;;;2088770;28;20201;-71
2021/04/22 03:50:26;;;;;;;22.93;14.97;;;2.50;99.90;;;;;;2089161;28;20550;-70
2021/04/22 03:51:26;;;;;;;20.80;14.83;;;2.50;99.90;;;;;;2088574;28;20206;-70
2021/04/22 03:52:27;;;;;;;18.43;14.33;;;2.60;99.90;;;;;;2089401;28;20423;-71
2021/04/22 03:53:28;;;;;;;22.40;16.20;;;2.60;99.90;;;;;;2089705;28;20180;-71
2021/04/22 03:54:28;;;;;;;20.67;15.03;;;2.70;99.90;;;;;;2089671;28;20172;-70
2021/04/22 03:55:29;;;;;;;22.87;15.03;;;2.70;99.90;;;;;;2089407;28;20185;-71
2021/04/22 03:56:30;;;;;;;19.57;14.47;;;2.80;99.90;;;;;;2088958;28;20207;-71
2021/04/22 03:57:31;;;;;;;21.20;15.83;;;2.80;99.90;;;;;;2088906;28;20287;-71
2021/04/22 03:58:32;;;;;;;20.27;15.63;;;2.90;99.90;;;;;;2089047;28;20165;-70
2021/04/22 03:59:33;;;;;;;21.70;15.43;;;3.00;99.90;;;;;;2080703;28;20751;-71
2021/04/22 04:00:34;;;;;;;19.90;14.48;;;3.00;99.90;;;;;;2089089;28;20351;-70
2021/04/22 04:01:35;;;;;;;20.57;15.23;;;3.10;99.90;;;;;;2088696;28;20176;-71
2021/04/22 04:02:35;;;;;;;20.83;15.13;;;3.10;99.90;;;;;;2088895;28;20188;-71
2021/04/22 04:03:36;;;;;;;21.33;15.70;;;3.10;99.90;;;;;;2089481;28;20269;-71
2021/04/22 04:04:37;;;;;;;19.10;14.33;;;3.10;99.90;;;;;;2089437;28;20263;-70
2021/04/22 04:05:37;;;;;;;19.17;14.73;;;3.10;99.90;;;;;;2089451;28;20636;-71
2021/04/22 04:06:38;;;;;;;19.93;14.37;;;3.10;99.90;;;;;;2089521;28;20255;-70
2021/04/22 04:07:39;;;;;;;19.43;13.93;;;3.10;99.90;;;;;;2089212;28;20176;-70
2021/04/22 04:08:39;;;;;;;25.93;15.40;;;3.20;99.90;;;;;;2090888;28;20176;-70
2021/04/22 04:09:40;;;;;;;19.40;14.10;;;3.20;99.90;;;;;;2089771;28;20201;-71
2021/04/22 04:10:41;;;;;;;17.90;13.87;;;3.20;99.90;;;;;;2090417;28;20269;-70
2021/04/22 04:11:42;;;;;;;16.70;13.03;;;3.30;99.90;;;;;;2089699;28;20182;-70
2021/04/22 04:12:42;;;;;;;21.52;13.48;;;3.30;99.90;;;;;;2089555;28;20231;-70
2021/04/22 04:13:43;;;;;;;17.13;13.53;;;3.30;99.90;;;;;;2089676;28;20546;-70
2021/04/22 04:14:44;;;;;;;18.57;13.13;;;3.40;99.90;;;;;;2089620;28;20247;-70
2021/04/22 04:15:46;;;;;;;17.92;12.15;;;3.50;99.90;;;;;;2081581;28;20265;-70
2021/04/22 04:16:47;;;;;;;17.85;13.70;;;3.60;99.90;;;;;;2081337;28;20355;-70
2021/04/22 04:17:47;;;;;;;16.83;13.07;;;3.60;99.90;;;;;;2081460;28;20252;-70
2021/04/22 04:18:48;;;;;;;19.90;14.40;;;3.60;99.90;;;;;;2089597;28;20173;-70
2021/04/22 04:19:49;;;;;;;19.30;14.00;;;3.60;99.90;;;;;;2090309;28;20210;-70
2021/04/22 04:20:50;;;;;;;21.65;14.10;;;3.60;99.90;;;;;;2089476;28;20186;-70
2021/04/22 04:21:51;;;;;;;23.57;15.23;;;3.60;99.90;;;;;;2089569;28;20165;-70
2021/04/22 04:22:51;;;;;;;14.17;10.87;;;3.60;99.90;;;;;;2090237;28;20203;-70
2021/04/22 04:23:52;;;;;;;13.80;11.33;;;3.60;99.90;;;;;;2090263;28;20250;-70
2021/04/22 04:24:53;;;;;;;21.53;13.37;;;3.50;99.90;;;;;;2090309;28;20252;-70
2021/04/22 04:25:54;;;;;;;19.17;13.17;;;3.40;99.90;;;;;;2090189;28;20180;-70
2021/04/22 04:26:55;;;;;;;15.82;12.15;;;3.40;99.90;;;;;;2090201;28;20182;-71
2021/04/22 04:27:56;;;;;;;14.63;10.83;;;3.30;99.90;;;;;;2089625;28;20235;-71
2021/04/22 04:28:56;;;;;;;16.97;12.30;;;3.30;99.90;;;;;;2089420;28;20212;-70
2021/04/22 04:29:57;;;;;;;18.73;12.43;;;3.30;99.90;;;;;;2090493;28;20220;-70
2021/04/22 04:30:58;;;;;;;20.60;13.10;;;3.30;99.90;;;;;;2090159;28;20548;-70
2021/04/22 04:31:58;;;;;;;15.23;11.27;;;3.20;99.90;;;;;;2090158;28;20177;-70
2021/04/22 04:32:59;;;;;;;15.17;12.17;;;3.20;99.90;;;;;;2090101;28;20200;-70
2021/04/22 04:34:00;;;;;;;15.80;12.00;;;3.20;99.90;;;;;;2089598;28;20667;-70
2021/04/22 04:35:01;;;;;;;14.90;11.77;;;3.20;99.90;;;;;;2089736;28;20279;-70
2021/04/22 04:36:01;;;;;;;15.33;11.50;;;3.20;99.90;;;;;;2089576;28;20168;-70
2021/04/22 04:37:03;;;;;;;15.90;11.23;;;3.30;99.90;;;;;;2089377;28;20204;-70
2021/04/22 04:38:04;;;;;;;18.60;12.27;;;3.20;99.90;;;;;;2090189;28;20164;-71
2021/04/22 04:39:05;;;;;;;24.10;14.60;;;3.30;99.90;;;;;;2090093;28;20172;-70
2021/04/22 04:40:09;;;;;;;18.37;13.17;;;3.30;99.90;;;;;;2089388;28;20192;-70
2021/04/22 04:41:09;;;;;;;17.50;12.95;;;3.20;99.90;;;;;;2081755;28;20428;-71
2021/04/22 04:42:10;;;;;;;22.57;13.80;;;3.20;99.90;;;;;;2090757;28;20176;-71
2021/04/22 04:43:11;;;;;;;18.80;14.40;;;3.20;99.90;;;;;;2091945;28;20215;-71
2021/04/22 04:44:11;;;;;;;20.53;14.60;;;3.20;99.90;;;;;;2090982;28;20173;-71
2021/04/22 04:45:18;;;;;;;19.70;13.20;;;3.20;99.90;;;;;;2091063;28;20218;-71
2021/04/22 04:46:19;;;;;;;16.58;12.10;;;3.30;99.90;;;;;;2090149;28;20265;-70
2021/04/22 04:47:20;;;;;;;17.47;13.00;;;3.30;99.90;;;;;;2089466;28;20178;-70
2021/04/22 04:48:20;;;;;;;19.83;13.43;;;3.30;99.90;;;;;;2089462;28;20215;-70
2021/04/22 04:49:22;;;;;;;16.97;13.10;;;3.30;99.90;;;;;;2089354;28;20222;-70
2021/04/22 04:50:22;;;;;;;16.95;12.05;;;3.30;99.90;;;;;;2081340;28;20205;-70
2021/04/22 04:51:23;;;;;;;14.57;11.73;;;3.40;99.90;;;;;;2089160;28;20187;-71
2021/04/22 04:52:24;;;;;;;18.67;13.03;;;3.40;99.90;;;;;;2089514;28;20726;-70
2021/04/22 04:53:24;;;;;;;15.37;12.10;;;3.40;99.90;;;;;;2081408;28;20256;-70
2021/04/22 04:54:25;;;;;;;16.90;12.20;;;3.40;99.90;;;;;;2089686;28;20234;-70
2021/04/22 04:55:26;;;;;;;17.73;12.77;;;3.40;99.90;;;;;;2090265;28;20171;-70
2021/04/22 04:56:26;;;;;;;17.87;13.30;;;3.50;99.90;;;;;;2090252;28;20729;-70
2021/04/22 04:57:27;;;;;;;17.57;13.27;;;3.50;99.90;;;;;;2090264;28;20176;-70
2021/04/22 04:58:28;;;;;;;19.50;13.23;;;3.60;99.90;;;;;;2090128;28;20517;-70
2021/04/22 04:59:28;;;;;;;16.50;12.83;;;3.60;99.90;;;;;;2090059;28;20183;-70
2021/04/22 05:00:29;;;;;;;15.63;13.03;;;3.60;99.90;;;;;;2089903;28;20609;-70
2021/04/22 05:01:30;;;;;;;18.07;12.63;;;3.70;99.90;;;;;;2089883;28;20172;-70
2021/04/22 05:02:31;;;;;;;15.67;12.23;;;3.70;99.90;;;;;;2089978;28;20214;-70
2021/04/22 05:03:31;;;;;;;16.57;12.77;;;3.70;99.90;;;;;;2090057;28;20180;-70
2021/04/22 05:04:32;;;;;;;17.50;13.30;;;3.80;99.90;;;;;;2090120;28;20230;-70
2021/04/22 05:05:33;;;;;;;16.70;12.70;;;3.80;99.90;;;;;;2081030;28;20173;-70
2021/04/22 05:06:34;;;;;;;18.03;13.53;;;3.90;99.90;;;;;;2080370;28;20169;-70
2021/04/22 05:07:34;;;;;;;20.53;14.40;;;4.00;99.90;;;;;;2089541;28;20171;-70
2021/04/22 05:08:35;;;;;;;20.03;13.83;;;4.00;99.90;;;;;;2089847;28;20404;-70
2021/04/22 05:09:37;;;;;;;19.73;13.33;;;4.00;99.90;;;;;;2089976;28;20227;-70
2021/04/22 05:10:38;;;;;;;19.48;14.77;;;4.00;99.90;;;;;;2090017;28;20179;-70
2021/04/22 05:11:38;;;;;;;17.23;13.33;;;4.00;99.90;;;;;;2089750;28;20208;-69
2021/04/22 05:12:39;;;;;;;18.97;13.53;;;4.00;99.90;;;;;;2089860;28;20228;-70
2021/04/22 05:13:40;;;;;;;15.67;12.37;;;4.00;99.90;;;;;;2090101;28;20480;-70
2021/04/22 05:14:41;;;;;;;18.93;13.03;;;4.10;99.90;;;;;;2089989;28;20173;-70
2021/04/22 05:15:42;;;;;;;19.47;13.13;;;4.10;99.90;;;;;;2090269;28;20177;-70
2021/04/22 05:16:42;;;;;;;20.88;14.63;;;4.20;99.90;;;;;;2089954;28;20697;-70